D/T METAR WX W/SPE G/SPE TEMP DEWP FEEL
31/01/23 07:20 EGPD 310720Z AUTO 26013KT 230V300 9999 SCT039 04/01 Q1007 TEMPO SHRA 15.0mph 4°C 1°C 2.1°C
31/01/23 06:50 EGPD 310650Z AUTO 30016G30KT 9999 FEW020 BKN042 04/01 Q1007 TEMPO SHRA 18.4mph 34.5mph 4°C 1°C 2.1°C
31/01/23 05:50 EGPD 310550Z AUTO 26015G25KT 9999 //////TCU 07/01 Q1006 17.3mph 28.8mph 7°C 1°C 5.1°C
31/01/23 04:20 EGPD 310420Z AUTO 25010KT 220V280 9999 NCD 08/01 Q1006 NOSIG 11.5mph 8°C 1°C 6.1°C
30/01/23 22:20 EGPD 302220Z AUTO 21015KT 9999 NCD 06/03 Q1011 NOSIG 17.3mph 6°C 3°C 4.7°C
30/01/23 12:50 EGPD 301250Z AUTO 30010KT 9999 BKN031 07/01 Q1018 11.5mph 7°C 1°C 5.1°C
30/01/23 11:50 EGPD 301150Z AUTO 30014KT 9999 NCD 06/01 Q1018 NOSIG 16.1mph 6°C 1°C 4.1°C
30/01/23 10:50 EGPD 301050Z AUTO 29013KT 9999 NCD 06/01 Q1017 NOSIG 15.0mph 6°C 1°C 4.1°C
30/01/23 10:20 EGPD 301020Z AUTO 29012G23KT 9999 NCD 05/01 Q1017 NOSIG 13.8mph 26.5mph 5°C 1°C 3.1°C
30/01/23 09:50 EGPD 300950Z AUTO 29012KT 250V320 9999 NCD 05/01 Q1016 NOSIG 13.8mph 5°C 1°C 3.1°C
30/01/23 07:50 EGPD 300750Z 31019KT 9999 FEW030 SCT045 05/01 Q1014 21.9mph 5°C 1°C 3.1°C
30/01/23 06:50 EGPD 300650Z AUTO 30021KT 9999 NCD 05/01 Q1012 24.2mph 5°C 1°C 3.1°C
09/01/23 06:50 EGPD 090650Z AUTO 25004KT 9999 NCD 04/01 Q0984 NOSIG 4.6mph 4°C 1°C 2.1°C
09/01/23 06:20 EGPD 090620Z AUTO 24005KT 9999 NCD 03/01 Q0983 NOSIG 5.8mph 3°C 1°C 1.1°C
09/01/23 05:50 EGPD 090550Z AUTO VRB02KT 9999 NCD 01/M00 Q0983 NOSIG 2.3mph 1°C 0°C -1.2°C
09/01/23 05:20 EGPD 090520Z AUTO 25006KT 9999 NCD 04/01 Q0982 NOSIG 6.9mph 4°C 1°C 2.1°C
09/01/23 04:50 EGPD 090450Z AUTO VRB02KT 9999 NCD 01/M00 Q0982 2.3mph 1°C 0°C -1.2°C
09/01/23 04:20 EGPD 090420Z AUTO VRB02KT 9999 NCD 00/M00 Q0982 2.3mph 0°C 0°C -2.2°C
09/01/23 03:50 EGPD 090350Z AUTO VRB02KT 9999 NCD 01/M00 Q0981 2.3mph 1°C 0°C -1.2°C
09/01/23 03:20 EGPD 090320Z AUTO VRB01KT 9999 NCD 01/M00 Q0981 1.2mph 1°C 0°C -1.2°C
09/01/23 02:50 EGPD 090250Z AUTO VRB01KT 9999 NCD 01/M00 Q0981 NOSIG 1.2mph 1°C 0°C -1.2°C
09/01/23 01:20 EGPD 090120Z AUTO 22006KT 9999 NCD 03/01 Q0980 NOSIG 6.9mph 3°C 1°C 1.1°C
09/01/23 00:50 EGPD 090050Z AUTO 22008KT 9999 NCD 03/01 Q0979 9.2mph 3°C 1°C 1.1°C
09/01/23 00:20 EGPD 090020Z AUTO 20007KT 9999 //////TCU 03/01 Q0979 NOSIG 8.1mph 3°C 1°C 1.1°C
08/01/23 23:50 EGPD 082350Z AUTO 14003KT 110V180 9999 SCT042 03/01 Q0979 NOSIG 3.5mph 3°C 1°C 1.1°C
08/01/23 22:50 EGPD 082250Z AUTO 13005KT 9999 //////CB 03/01 Q0978 5.8mph 3°C 1°C 1.1°C
08/01/23 22:20 EGPD 082220Z AUTO 18009KT 9999 FEW022 04/01 Q0978 TEMPO SHRA 10.4mph 4°C 1°C 2.1°C
08/01/23 20:20 EGPD 082020Z AUTO 16004KT 130V200 9999 BKN025 03/01 Q0978 NOSIG 4.6mph 3°C 1°C 1.1°C
08/01/23 19:20 EGPD 081920Z AUTO 17011KT 9999 NCD 03/01 Q0978 NOSIG 12.7mph 3°C 1°C 1.1°C
08/01/23 18:20 EGPD 081820Z AUTO 16008KT 9999 NCD 04/02 Q0978 9.2mph 4°C 2°C 2.4°C
08/01/23 17:50 EGPD 081750Z AUTO 17011KT 9999 NCD 04/02 Q0978 NOSIG 12.7mph 4°C 2°C 2.4°C
08/01/23 17:20 EGPD 081720Z AUTO 18011KT 9999 NCD 05/02 Q0978 NOSIG 12.7mph 5°C 2°C 3.4°C
08/01/23 16:50 EGPD 081650Z AUTO 19014KT 9999 NCD 05/02 Q0978 16.1mph 5°C 2°C 3.4°C
08/01/23 15:50 EGPD 081550Z AUTO 18008KT 9999 FEW022 05/02 Q0978 9.2mph 5°C 2°C 3.4°C
08/01/23 15:20 EGPD 081520Z AUTO 18011KT 9999 NCD 05/03 Q0978 NOSIG 12.7mph 5°C 3°C 3.7°C
08/01/23 14:20 EGPD 081420Z AUTO 19018KT 9999 NCD 06/01 Q0978 20.7mph 6°C 1°C 4.1°C
08/01/23 13:50 EGPD 081350Z AUTO 19021KT 9999 NCD 06/02 Q0978 24.2mph 6°C 2°C 4.4°C
08/01/23 13:20 EGPD 081320Z 19024KT 9000 VCSH SCT018 06/02 Q0979 VCSH 27.6mph 6°C 2°C 4.4°C
08/01/23 12:50 EGPD 081250Z 19020G31KT 7000 -RA FEW013 SCT019 BKN024 07/04 Q0979 RERA TEMPO 4000 SHRA -RA 23.0mph 35.7mph 7°C 4°C 6.0°C
08/01/23 12:20 EGPD 081220Z AUTO 18018KT 9999 SCT021 BKN027 OVC039 07/04 Q0979 20.7mph 7°C 4°C 6.0°C
08/01/23 11:50 EGPD 081150Z AUTO 18020KT 9999 BKN028 07/03 Q0979 NOSIG 23.0mph 7°C 3°C 5.7°C
08/01/23 11:20 EGPD 081120Z AUTO 18021KT 9999 FEW036 07/03 Q0979 NOSIG 24.2mph 7°C 3°C 5.7°C
08/01/23 10:50 EGPD 081050Z AUTO 18022KT 9999 NCD 07/02 Q0979 NOSIG 25.3mph 7°C 2°C 5.4°C
08/01/23 10:20 EGPD 081020Z AUTO 18021KT 9999 NCD 06/02 Q0979 NOSIG 24.2mph 6°C 2°C 4.4°C
08/01/23 09:50 EGPD 080950Z AUTO 18020KT 9999 NCD 06/02 Q0979 NOSIG 23.0mph 6°C 2°C 4.4°C
08/01/23 09:20 EGPD 080920Z AUTO 18020G31KT 9999 FEW036 06/02 Q0980 23.0mph 35.7mph 6°C 2°C 4.4°C
08/01/23 08:50 EGPD 080850Z AUTO 17017KT 9999 NCD 05/02 Q0979 NOSIG 19.6mph 5°C 2°C 3.4°C
08/01/23 08:20 EGPD 080820Z AUTO 17018KT 9999 NCD 05/02 Q0979 NOSIG 20.7mph 5°C 2°C 3.4°C
08/01/23 07:50 EGPD 080750Z AUTO 17015KT 9999 NCD 05/02 Q0979 17.3mph 5°C 2°C 3.4°C
08/01/23 07:20 EGPD 080720Z AUTO 17013KT 9999 NCD 05/02 Q0980 NOSIG 15.0mph 5°C 2°C 3.4°C
08/01/23 06:50 EGPD 080650Z AUTO 19016KT 9999 NCD 06/02 Q0979 NOSIG 18.4mph 6°C 2°C 4.4°C
08/01/23 06:20 EGPD 080620Z AUTO 19014KT 9999 NCD 06/02 Q0979 NOSIG 16.1mph 6°C 2°C 4.4°C
08/01/23 05:50 EGPD 080550Z AUTO 21019KT 9999 NCD 06/03 Q0979 NOSIG 21.9mph 6°C 3°C 4.7°C
08/01/23 05:20 EGPD 080520Z AUTO 21018G30KT 9999 NCD 07/02 Q0978 20.7mph 34.5mph 7°C 2°C 5.4°C
08/01/23 04:50 EGPD 080450Z AUTO 20016KT 9999 FEW026 07/03 Q0978 NOSIG 18.4mph 7°C 3°C 5.7°C
08/01/23 04:20 EGPD 080420Z AUTO 20014KT 9999 SCT025 07/03 Q0978 16.1mph 7°C 3°C 5.7°C
08/01/23 03:50 EGPD 080350Z AUTO 21015G28KT 9999 FEW030 07/03 Q0978 NOSIG 17.3mph 32.2mph 7°C 3°C 5.7°C
08/01/23 03:20 EGPD 080320Z AUTO 21016KT 9999 SCT025 07/03 Q0977 NOSIG 18.4mph 7°C 3°C 5.7°C
08/01/23 02:50 EGPD 080250Z AUTO 20014G25KT 9999 BKN022 OVC029 08/04 Q0977 NOSIG 16.1mph 28.8mph 8°C 4°C 7.0°C
08/01/23 02:20 EGPD 080220Z AUTO 18014KT 9999 BKN022 OVC033 07/04 Q0978 NOSIG 16.1mph 7°C 4°C 6.0°C
08/01/23 01:50 EGPD 080150Z AUTO 18013KT 9999 SCT021 BKN027 07/04 Q0978 NOSIG 15.0mph 7°C 4°C 6.0°C
08/01/23 01:20 EGPD 080120Z AUTO 17018KT 9999 SCT020 BKN025 BKN030 07/04 Q0977 NOSIG 20.7mph 7°C 4°C 6.0°C
08/01/23 00:20 EGPD 080020Z AUTO 18023KT 9999 FEW027 SCT031 BKN040 07/04 Q0977 26.5mph 7°C 4°C 6.0°C
07/01/23 23:50 EGPD 072350Z AUTO 19019KT 9999 FEW025 07/04 Q0979 21.9mph 7°C 4°C 6.0°C
07/01/23 23:20 EGPD 072320Z AUTO 18018KT 9999 SCT037 06/04 Q0979 20.7mph 6°C 4°C 5.0°C
07/01/23 22:50 EGPD 072250Z AUTO 18021KT 9999 BKN017 BKN027 07/04 Q0979 TEMPO SHRA BKN014 24.2mph 7°C 4°C 6.0°C
07/01/23 22:20 EGPD 072220Z 17025G35KT 9999 -RA SCT012 07/04 Q0979 TEMPO SHRA BKN012 -RA 28.8mph 40.3mph 7°C 4°C 6.0°C
07/01/23 21:50 EGPD 072150Z AUTO 17025KT 9999 NCD 07/04 Q0979 TEMPO SHRA BKN014 28.8mph 7°C 4°C 6.0°C
07/01/23 21:20 EGPD 072120Z AUTO 18029KT 9999 NCD 07/04 Q0979 TEMPO SHRA 33.4mph 7°C 4°C 6.0°C
07/01/23 20:50 EGPD 072050Z AUTO 17023KT 9999 NCD 07/04 Q0980 NOSIG 26.5mph 7°C 4°C 6.0°C
07/01/23 20:20 EGPD 072020Z AUTO 17020KT 9999 SCT017 07/05 Q0980 NOSIG 23.0mph 7°C 5°C 6.3°C
07/01/23 19:50 EGPD 071950Z AUTO 18016KT 9999 FEW017 SCT031 07/05 Q0981 NOSIG 18.4mph 7°C 5°C 6.3°C
07/01/23 19:20 EGPD 071920Z AUTO 18018KT 9999 FEW017 07/05 Q0981 NOSIG 20.7mph 7°C 5°C 6.3°C
07/01/23 18:50 EGPD 071850Z AUTO 18021KT 9999 NCD 07/04 Q0981 NOSIG 24.2mph 7°C 4°C 6.0°C
07/01/23 18:20 EGPD 071820Z AUTO 17021KT 9999 NCD 07/04 Q0982 24.2mph 7°C 4°C 6.0°C
07/01/23 17:50 EGPD 071750Z AUTO 18016KT 9999 SCT034 07/04 Q0982 NOSIG 18.4mph 7°C 4°C 6.0°C
07/01/23 17:20 EGPD 071720Z AUTO 18018KT 9999 NCD 07/05 Q0982 NOSIG 20.7mph 7°C 5°C 6.3°C
07/01/23 16:50 EGPD 071650Z AUTO 17015KT 9999 NCD 07/05 Q0982 NOSIG 17.3mph 7°C 5°C 6.3°C
07/01/23 16:20 EGPD 071620Z AUTO 19015KT 9999 NCD 07/05 Q0982 NOSIG 17.3mph 7°C 5°C 6.3°C
07/01/23 15:50 EGPD 071550Z AUTO 19017KT 9999 NCD 07/05 Q0982 NOSIG 19.6mph 7°C 5°C 6.3°C
07/01/23 15:20 EGPD 071520Z AUTO 19014KT 9999 FEW023 07/05 Q0983 NOSIG 16.1mph 7°C 5°C 6.3°C
07/01/23 14:50 EGPD 071450Z AUTO 19011KT 9999 NCD 08/05 Q0983 12.7mph 8°C 5°C 7.3°C
07/01/23 14:20 EGPD 071420Z AUTO 20008KT 170V230 9999 NCD 08/05 Q0983 9.2mph 8°C 5°C 7.3°C
07/01/23 13:20 EGPD 071320Z AUTO 17007KT 9999 OVC026 08/06 Q0984 8.1mph 8°C 6°C 7.6°C
07/01/23 12:50 EGPD 071250Z AUTO 16006KT 9999 OVC023 08/07 Q0984 6.9mph 8°C 7°C 8.0°C
07/01/23 12:20 EGPD 071220Z AUTO 18006KT 9999 -RA OVC017 08/06 Q0985 -RA 6.9mph 8°C 6°C 7.6°C
07/01/23 11:50 EGPD 071150Z AUTO 19004KT 160V220 9000 -RA OVC016/// //////TCU 08/06 Q0986 -RA 4.6mph 8°C 6°C 7.6°C
07/01/23 11:20 EGPD 071120Z AUTO 16007KT 9999 OVC021 08/06 Q0986 TEMPO BKN014 8.1mph 8°C 6°C 7.6°C
07/01/23 10:50 EGPD 071050Z AUTO 16008KT 9999 BKN024 08/07 Q0986 NOSIG 9.2mph 8°C 7°C 8.0°C
07/01/23 10:20 EGPD 071020Z AUTO 18006KT 9999 SCT028 08/07 Q0986 NOSIG 6.9mph 8°C 7°C 8.0°C
07/01/23 09:50 EGPD 070950Z AUTO 18006KT 9999 SCT025 08/07 Q0987 NOSIG 6.9mph 8°C 7°C 8.0°C
07/01/23 09:20 EGPD 070920Z 17007KT 9999 SCT033 08/07 Q0987 NOSIG 8.1mph 8°C 7°C 8.0°C
07/01/23 08:50 EGPD 070850Z AUTO 16007KT 9999 BKN035 08/07 Q0987 8.1mph 8°C 7°C 8.0°C
07/01/23 07:50 EGPD 070750Z AUTO 19009KT 9999 BKN011 BKN024 09/08 Q0988 TEMPO BKN009 10.4mph 9°C 8°C 9.4°C
07/01/23 07:20 EGPD 070720Z AUTO 19010KT 9999 BKN009 OVC019 09/08 Q0988 TEMPO BKN006 11.5mph 9°C 8°C 9.4°C
07/01/23 06:50 EGPD 070650Z AUTO 18012KT 9999 OVC008 09/08 Q0988 TEMPO 4000 RADZ BKN006 13.8mph 9°C 8°C 9.4°C